SVLJ weather

La Vieja Airport
La Ceiba, Anzoategui, Venezuela

Public forecast

Using degrees Celsius for public forecast. Weather courtesy of forecast.io.

METAR (pilot weather report)

Report is more than 6 hours old.

Closest report is General José Antonio Anzoategui International Airport, 39.6 nm (73.3 km) NW. Retrieved 2018/10/22 20:00 UTC (6 months ago):

SVBC 222000Z /////KT 9000 DZBKN020 25/25 Q1008

TAF (pilot weather forecast)

Closest forecast is General José Antonio Anzoategui International Airport, 39.6 nm (73.3 km) NW. Retrieved 2019/04/20 18:46 UTC (1 hour ago):

TAF SVBC 201730Z 2018/2118 05007KT 9999 SCT010 TX35/19Z TN25/08Z TEMPO 2012/2016 03003KT 9000 DZ BKN016